Fremont, Iowa
Current Conditions -  °F | °C
As of 8:15 AM on Thursday 18 Dec 2014 (Local Time) from KOOA Reporting Station
Light Snow Light Snow  
Wind Chill: 22°   Ceiling: 3400
Heat Index: 22°   Visibility: 5mi
Dew Point: 18°   Wind: 3mph
Humidity: 86%   Direction: 150°SSE
Pressure: 30.3"   Gusts: NA
Location:  41.21°N, 92.44°W
Report Text: KOOA 181415Z AUTO 15003KT 5SM -SN OVC034 M06/M08 A3030 RMK AO2 T10561076
Loading
Personal Weather Stations






























Interactive Weather Map New forecast layout! Learn more

10-Day Weather Forecast

Advertisements
Track Severe Weather on mobile